createdAt,value
2018-11-05T05:30:25.348Z,14.93
2018-11-05T05:32:53.161Z,15.87
2018-11-05T05:35:21.128Z,16.13
2018-11-05T05:37:49.067Z,19.53
2018-11-05T05:40:17.001Z,17.37
2018-11-05T05:42:44.916Z,16.83
2018-11-05T05:45:13.132Z,15.53
2018-11-05T05:47:41.702Z,17.27
2018-11-05T05:50:11.120Z,17.23
2018-11-05T05:52:39.399Z,17.20
2018-11-05T05:55:07.632Z,17.30
2018-11-05T05:57:35.612Z,16.60
2018-11-05T06:00:03.593Z,16.77
2018-11-05T06:02:31.487Z,15.90
2018-11-05T06:04:59.832Z,16.17
2018-11-05T06:07:27.804Z,17.07
2018-11-05T06:09:55.762Z,14.90
2018-11-05T06:12:23.691Z,13.90
2018-11-05T06:14:51.720Z,13.30
2018-11-05T06:17:19.639Z,14.70
2018-11-05T06:19:47.676Z,13.70
2018-11-05T06:22:15.626Z,12.17
2018-11-05T06:24:43.592Z,13.80
2018-11-05T06:27:11.527Z,13.60
2018-11-05T06:29:39.472Z,15.70
2018-11-05T06:32:07.431Z,14.90
2018-11-05T06:34:35.463Z,18.17
2018-11-05T06:37:03.393Z,17.80
2018-11-05T06:39:31.332Z,16.83
2018-11-05T06:41:59.331Z,16.10
2018-11-05T06:44:27.260Z,16.93
2018-11-05T06:46:55.224Z,21.00
2018-11-05T06:49:23.160Z,23.83
2018-11-05T06:51:51.092Z,20.87
2018-11-05T06:54:19.120Z,19.43
2018-11-05T06:56:47.096Z,23.23
2018-11-05T06:59:15.016Z,27.47
2018-11-05T07:01:42.963Z,26.37
2018-11-05T07:04:10.908Z,23.90
2018-11-05T07:06:39.194Z,23.10
2018-11-05T07:09:08.664Z,21.00
2018-11-05T07:17:06.383Z,15.63
2018-11-05T07:19:34.384Z,14.67
2018-11-05T07:22:02.294Z,14.53
2018-11-05T07:24:30.199Z,14.30
2018-11-05T07:26:58.155Z,14.40
2018-11-05T07:29:26.084Z,12.77
2018-11-05T07:31:54.100Z,13.37
2018-11-05T07:34:22.264Z,13.67
2018-11-05T07:36:50.099Z,13.30
2018-11-05T07:39:17.999Z,11.03
2018-11-05T07:41:45.920Z,11.90
2018-11-05T07:44:13.904Z,10.77
2018-11-05T16:02:58.893Z,12.87
2018-11-05T16:05:26.827Z,12.70
2018-11-05T16:07:54.853Z,14.50
2018-11-05T16:10:23.000Z,13.00
2018-11-05T16:12:50.928Z,12.70
2018-11-05T16:15:19.008Z,13.50
2018-11-05T16:17:46.955Z,14.60
2018-11-05T16:20:16.196Z,14.40
2018-11-05T16:22:44.577Z,13.93
2018-11-05T16:25:12.658Z,14.67
2018-11-05T16:27:40.823Z,12.90
2018-11-05T16:30:09.566Z,12.57
2018-11-05T16:32:37.492Z,12.60
2018-11-05T16:35:05.523Z,12.20
2018-11-05T16:37:33.509Z,12.30
2018-11-05T16:40:01.474Z,12.10
2018-11-05T16:42:29.396Z,12.80
2018-11-05T16:44:57.324Z,11.40
2018-11-05T16:47:25.281Z,11.97
2018-11-05T16:49:53.261Z,11.93
2018-11-05T16:52:21.169Z,11.73
2018-11-05T16:54:49.179Z,11.90
2018-11-05T16:57:17.136Z,12.30
2018-11-05T16:59:45.125Z,13.37
2018-11-05T17:02:14.651Z,11.63
2018-11-05T17:04:43.656Z,13.27
2018-11-05T17:07:11.200Z,11.53
2018-11-05T17:09:39.319Z,13.10
2018-11-05T17:12:07.252Z,13.00
2018-11-05T17:14:35.315Z,13.50
2018-11-05T17:17:03.260Z,13.67
2018-11-05T17:19:31.865Z,13.10
2018-11-05T17:21:59.807Z,14.13
2018-11-05T17:24:28.524Z,14.57
2018-11-05T17:26:56.496Z,14.83
2018-11-05T17:29:24.460Z,15.33
2018-11-05T17:31:52.409Z,13.73
2018-11-05T17:34:20.716Z,14.10
2018-11-05T17:36:48.675Z,14.93
2018-11-05T17:39:16.615Z,15.30
2018-11-05T17:41:44.623Z,15.60
2018-11-05T17:44:13.312Z,14.10
2018-11-05T17:46:41.472Z,14.70
2018-11-05T17:49:11.288Z,15.57
2018-11-05T17:51:39.460Z,14.40
2018-11-05T17:54:07.411Z,15.40
2018-11-05T17:56:35.327Z,16.53
2018-11-05T17:59:03.691Z,14.23
2018-11-05T18:01:31.619Z,15.37
2018-11-05T18:03:59.876Z,16.70
2018-11-05T18:06:27.311Z,15.20
2018-11-05T18:08:55.646Z,16.13
2018-11-05T18:11:23.694Z,17.57
2018-11-05T18:13:51.939Z,17.10
2018-11-05T18:16:19.876Z,18.60
2018-11-05T18:18:47.871Z,19.10
2018-11-05T18:21:15.832Z,17.33
2018-11-05T18:23:43.756Z,17.40
2018-11-05T18:26:11.879Z,16.70
2018-11-05T18:28:39.920Z,16.73
2018-11-05T18:31:07.948Z,20.57
2018-11-05T18:33:35.824Z,19.03
2018-11-05T18:38:38.283Z,16.80
2018-11-05T18:41:06.252Z,16.90
2018-11-05T18:43:34.288Z,14.73
2018-11-05T18:46:02.313Z,17.20
2018-11-05T18:48:30.472Z,16.77
2018-11-05T18:50:58.495Z,16.67
2018-11-05T18:53:26.440Z,18.97
2018-11-05T18:55:54.497Z,18.77
2018-11-05T18:58:22.399Z,19.60
2018-11-05T19:00:50.437Z,19.13
2018-11-05T19:03:18.495Z,19.30
2018-11-05T19:05:46.364Z,22.37
2018-11-05T19:08:15.108Z,19.23
2018-11-05T19:10:43.139Z,18.10
2018-11-05T19:13:11.050Z,19.47
2018-11-05T19:15:39.018Z,16.60
2018-11-05T19:18:06.936Z,19.40
2018-11-05T19:20:34.977Z,23.47
2018-11-05T19:23:03.096Z,22.80
2018-11-05T19:25:30.915Z,26.37
2018-11-05T19:27:58.831Z,21.20
2018-11-05T19:30:27.612Z,19.37
2018-11-05T19:32:55.536Z,20.83
2018-11-05T19:35:23.469Z,20.07
2018-11-05T19:37:51.463Z,20.70
2018-11-05T19:40:19.866Z,20.30
2018-11-05T19:42:48.411Z,24.97
2018-11-05T19:45:17.555Z,35.07
2018-11-05T19:47:45.481Z,32.47
2018-11-05T19:50:14.915Z,27.67
2018-11-05T19:52:43.707Z,24.97
2018-11-05T19:55:12.731Z,25.60
2018-11-05T19:57:41.686Z,30.03
2018-11-05T20:00:15.530Z,70.47
2018-11-05T20:02:43.684Z,26.90
2018-11-05T20:05:11.814Z,22.93
2018-11-05T20:07:39.849Z,20.57
2018-11-05T20:10:07.316Z,18.83
2018-11-05T20:12:35.424Z,19.70
2018-11-05T20:15:03.428Z,17.07
2018-11-05T20:17:31.367Z,28.80
2018-11-05T20:19:59.391Z,22.63
2018-11-05T20:22:27.386Z,23.43
2018-11-05T20:24:55.240Z,28.40
2018-11-05T20:27:23.251Z,23.90
2018-11-05T20:29:51.199Z,20.80
2018-11-05T20:32:19.477Z,21.17
2018-11-05T20:34:47.072Z,22.67
2018-11-05T20:37:15.004Z,22.63
2018-11-05T20:39:43.055Z,20.17
2018-11-05T20:42:11.085Z,22.57
2018-11-05T20:44:39.021Z,21.30
2018-11-05T20:47:07.528Z,22.67
2018-11-05T20:49:35.479Z,23.07
2018-11-05T20:52:03.444Z,22.87
2018-11-05T20:54:31.431Z,23.07
2018-11-05T20:56:59.584Z,23.80
2018-11-05T20:59:27.511Z,23.23
2018-11-05T21:01:55.591Z,23.40
2018-11-05T21:04:23.605Z,25.10
2018-11-05T21:06:52.487Z,22.97
2018-11-05T21:09:20.455Z,22.37
2018-11-05T21:11:48.434Z,23.80
2018-11-05T21:14:16.371Z,22.90
2018-11-05T21:16:44.491Z,22.30
2018-11-05T21:19:12.548Z,21.40
2018-11-05T21:21:40.805Z,20.93
2018-11-05T21:24:08.692Z,20.67
2018-11-05T21:26:38.280Z,19.87
2018-11-05T21:29:06.308Z,21.30
2018-11-05T21:31:34.240Z,20.47
2018-11-05T21:34:02.199Z,20.87
2018-11-05T21:36:30.123Z,23.20
2018-11-05T21:38:58.068Z,22.70
2018-11-05T21:41:26.020Z,22.87
2018-11-05T21:43:53.951Z,24.73
2018-11-05T21:46:22.060Z,20.77
2018-11-05T21:48:49.992Z,25.00
2018-11-05T21:51:17.959Z,25.90
2018-11-05T21:53:45.892Z,24.97
2018-11-05T21:56:13.951Z,26.50
2018-11-05T21:58:41.916Z,23.80
2018-11-05T22:01:09.934Z,25.33
2018-11-05T22:03:37.837Z,28.47
2018-11-05T22:06:05.751Z,32.30
2018-11-05T22:08:34.516Z,29.33
2018-11-05T22:11:02.446Z,28.10
2018-11-05T22:13:30.373Z,26.60
2018-11-05T22:15:58.327Z,27.73
2018-11-05T22:18:26.283Z,28.10
2018-11-05T22:20:54.250Z,26.43
2018-11-05T22:23:22.215Z,25.07
2018-11-05T22:25:50.180Z,25.23
2018-11-05T22:28:18.144Z,23.33
2018-11-05T22:30:46.532Z,21.77
2018-11-05T22:33:14.504Z,20.30
2018-11-05T22:35:42.444Z,19.20
2018-11-05T22:38:10.493Z,20.20
2018-11-05T22:40:38.468Z,20.70
2018-11-05T22:43:06.444Z,19.50
2018-11-05T22:45:34.340Z,19.40
2018-11-05T22:48:02.264Z,17.90
2018-11-05T22:50:30.294Z,17.97
2018-11-05T22:52:58.140Z,17.93
2018-11-05T22:55:26.055Z,17.40
2018-11-05T22:57:53.973Z,16.97
2018-11-05T23:00:27.595Z,15.83
2018-11-05T23:03:01.202Z,16.17
2018-11-05T23:05:29.143Z,17.33
2018-11-05T23:07:57.089Z,16.77
2018-11-05T23:10:24.610Z,15.60
2018-11-05T23:12:52.551Z,14.97
2018-11-05T23:15:20.767Z,15.73
2018-11-05T23:17:48.971Z,14.23
2018-11-05T23:20:16.871Z,14.00
2018-11-05T23:22:44.876Z,14.40
2018-11-05T23:25:13.351Z,14.00
2018-11-05T23:27:41.599Z,12.80
2018-11-05T23:30:10.316Z,15.10
2018-11-05T23:32:39.108Z,13.40
2018-11-05T23:35:07.938Z,13.27
2018-11-05T23:37:36.379Z,14.30
2018-11-05T23:40:05.653Z,12.93
2018-11-05T23:42:33.586Z,13.90
2018-11-05T23:45:01.575Z,13.30
